createdAt,value
2023-12-31T00:00:22.944Z,10.99
2023-12-31T00:02:49.369Z,10.91
2023-12-31T00:05:15.743Z,10.50
2023-12-31T00:07:42.238Z,10.41
2023-12-31T00:10:08.702Z,10.67
2023-12-31T00:12:35.147Z,10.80
2023-12-31T00:15:01.638Z,10.82
2023-12-31T00:17:28.061Z,10.80
2023-12-31T00:19:54.495Z,10.85
2023-12-31T00:22:20.987Z,10.92
2023-12-31T00:24:47.694Z,10.96
2023-12-31T00:27:14.115Z,10.92
2023-12-31T00:29:40.513Z,10.99
2023-12-31T00:32:06.934Z,10.95
2023-12-31T00:34:33.395Z,10.93
2023-12-31T00:36:59.817Z,10.88
2023-12-31T00:39:26.269Z,10.50
2023-12-31T00:41:52.664Z,10.30
2023-12-31T00:44:19.104Z,10.55
2023-12-31T00:46:45.580Z,10.69
2023-12-31T00:49:12.275Z,10.75
2023-12-31T00:51:38.789Z,10.80
2023-12-31T00:54:05.212Z,10.79
2023-12-31T00:56:31.630Z,10.86
2023-12-31T00:58:58.036Z,10.99
2023-12-31T01:01:24.535Z,10.96
2023-12-31T01:03:50.977Z,10.96
2023-12-31T01:06:17.610Z,10.95
2023-12-31T01:08:44.057Z,10.98
2023-12-31T01:11:10.466Z,10.95
2023-12-31T01:13:36.929Z,10.65
2023-12-31T01:16:03.362Z,10.34
2023-12-31T01:18:29.810Z,10.47
2023-12-31T01:20:56.232Z,10.67
2023-12-31T01:23:22.882Z,10.71
2023-12-31T01:25:49.383Z,10.71
2023-12-31T01:28:15.863Z,10.76
2023-12-31T01:30:42.357Z,10.78
2023-12-31T01:33:09.529Z,10.85
2023-12-31T01:35:36.215Z,10.92
2023-12-31T01:38:02.631Z,10.92
2023-12-31T01:40:29.111Z,10.92
2023-12-31T01:42:55.526Z,10.92
2023-12-31T01:45:21.932Z,10.91
2023-12-31T01:47:48.379Z,10.80
2023-12-31T01:50:14.821Z,10.37
2023-12-31T01:52:41.263Z,10.37
2023-12-31T01:55:07.738Z,10.64
2023-12-31T01:57:34.148Z,10.71
2023-12-31T02:00:00.552Z,10.73
2023-12-31T02:02:27.023Z,10.75
2023-12-31T02:04:53.570Z,10.78
2023-12-31T02:07:20.031Z,10.86
2023-12-31T02:09:46.495Z,10.92
2023-12-31T02:12:12.894Z,10.91
2023-12-31T02:14:39.317Z,10.92
2023-12-31T02:17:05.905Z,10.89
2023-12-31T02:19:32.351Z,10.86
2023-12-31T02:21:58.774Z,10.83
2023-12-31T02:24:25.404Z,10.42
2023-12-31T02:26:51.822Z,10.25
2023-12-31T02:29:18.215Z,10.51
2023-12-31T02:31:44.682Z,10.64
2023-12-31T02:34:11.177Z,10.68
2023-12-31T02:36:37.570Z,10.68
2023-12-31T02:39:03.942Z,10.75
2023-12-31T02:41:48.747Z,10.82
2023-12-31T02:44:33.912Z,10.88
2023-12-31T02:47:19.023Z,10.92
2023-12-31T02:50:04.075Z,10.92
2023-12-31T02:52:49.435Z,10.88
2023-12-31T02:55:35.069Z,10.86
2023-12-31T02:58:19.814Z,10.64
2023-12-31T03:01:04.794Z,10.25
2023-12-31T03:03:49.748Z,10.48
2023-12-31T03:06:35.064Z,10.64
2023-12-31T03:09:20.085Z,10.71
2023-12-31T03:12:05.292Z,10.75
2023-12-31T03:14:50.273Z,10.75
2023-12-31T03:17:35.663Z,10.88
2023-12-31T03:20:20.699Z,10.88
2023-12-31T03:23:06.133Z,10.88
2023-12-31T03:25:51.541Z,10.89
2023-12-31T03:28:36.768Z,10.88
2023-12-31T03:31:22.037Z,10.85
2023-12-31T03:34:07.335Z,10.41
2023-12-31T03:36:52.391Z,10.25
2023-12-31T03:39:37.704Z,10.52
2023-12-31T03:42:22.728Z,10.65
2023-12-31T03:45:08.066Z,10.72
2023-12-31T03:47:53.329Z,10.72
2023-12-31T03:50:38.485Z,10.73
2023-12-31T03:53:23.554Z,10.83
2023-12-31T03:56:08.575Z,10.86
2023-12-31T03:58:35.168Z,10.88
2023-12-31T04:01:01.594Z,10.86
2023-12-31T04:03:28.198Z,10.85
2023-12-31T04:05:54.636Z,10.83
2023-12-31T04:08:21.228Z,10.55
2023-12-31T04:10:47.855Z,10.27
2023-12-31T04:13:14.231Z,10.41
2023-12-31T04:15:40.624Z,10.58
2023-12-31T04:18:07.059Z,10.64
2023-12-31T04:20:33.670Z,10.72
2023-12-31T04:23:00.058Z,10.71
2023-12-31T04:25:26.452Z,10.72
2023-12-31T04:27:52.872Z,10.79
2023-12-31T04:30:19.288Z,10.85
2023-12-31T04:32:45.700Z,10.80
2023-12-31T04:35:12.101Z,10.80
2023-12-31T04:37:38.511Z,10.83
2023-12-31T04:40:04.908Z,10.78
2023-12-31T04:42:31.276Z,10.61
2023-12-31T04:44:57.635Z,10.29
2023-12-31T04:47:24.065Z,10.29
2023-12-31T04:49:50.793Z,10.52
2023-12-31T04:52:17.284Z,10.64
2023-12-31T04:54:43.663Z,10.65
2023-12-31T04:57:10.044Z,10.65
2023-12-31T04:59:36.500Z,10.68
2023-12-31T05:02:03.147Z,10.83
2023-12-31T05:04:29.607Z,10.86
2023-12-31T05:06:55.997Z,10.85
2023-12-31T05:09:22.366Z,10.88
2023-12-31T05:11:48.761Z,10.85
2023-12-31T05:14:15.308Z,10.85
2023-12-31T05:16:41.719Z,10.76
2023-12-31T05:19:08.370Z,10.34
2023-12-31T05:21:34.754Z,10.23
2023-12-31T05:24:01.403Z,10.44
2023-12-31T05:26:27.809Z,10.61
2023-12-31T05:28:54.457Z,10.62
2023-12-31T05:31:20.979Z,10.68
2023-12-31T05:33:47.641Z,10.65
2023-12-31T05:36:14.257Z,10.75
2023-12-31T05:38:40.639Z,10.79
2023-12-31T05:41:07.004Z,10.79
2023-12-31T05:43:33.642Z,10.78
2023-12-31T05:46:00.248Z,10.78
2023-12-31T05:48:26.717Z,10.78
2023-12-31T05:50:53.347Z,10.73
2023-12-31T05:53:19.705Z,10.41
2023-12-31T05:55:46.114Z,10.17
2023-12-31T05:58:12.798Z,10.36
2023-12-31T06:00:39.419Z,10.55
2023-12-31T06:03:06.465Z,10.62
2023-12-31T06:05:33.114Z,10.65
2023-12-31T06:07:59.723Z,10.67
2023-12-31T06:10:26.142Z,10.72
2023-12-31T06:12:52.516Z,10.79
2023-12-31T06:15:18.884Z,10.80
2023-12-31T06:17:45.264Z,10.82
2023-12-31T06:20:11.856Z,10.80
2023-12-31T06:22:38.945Z,10.80
2023-12-31T06:25:05.319Z,10.75
2023-12-31T06:27:31.926Z,10.54
2023-12-31T06:29:58.364Z,10.20
2023-12-31T06:32:24.867Z,10.25
2023-12-31T06:34:51.324Z,10.50
2023-12-31T06:37:17.771Z,10.52
2023-12-31T06:39:44.427Z,10.61
2023-12-31T06:42:10.828Z,10.61
2023-12-31T06:44:37.219Z,10.69
2023-12-31T06:47:03.604Z,10.76
2023-12-31T06:49:30.642Z,10.78
2023-12-31T06:51:57.123Z,10.76
2023-12-31T06:54:23.477Z,10.79
2023-12-31T06:56:49.847Z,10.80
2023-12-31T06:59:16.207Z,10.80
2023-12-31T07:01:42.643Z,10.72
2023-12-31T07:04:09.082Z,10.31
2023-12-31T07:06:38.014Z,10.25
2023-12-31T07:09:06.081Z,10.48
2023-12-31T07:11:32.651Z,10.55
2023-12-31T07:13:59.038Z,10.62
2023-12-31T07:16:25.452Z,10.64
2023-12-31T07:18:51.922Z,10.65
2023-12-31T07:21:18.394Z,10.75
2023-12-31T07:23:44.781Z,10.80
2023-12-31T07:26:11.159Z,10.78
2023-12-31T07:28:37.540Z,10.75
2023-12-31T07:31:04.019Z,10.76
2023-12-31T07:33:30.441Z,10.75
2023-12-31T07:35:57.037Z,10.71
2023-12-31T07:38:23.406Z,10.36
2023-12-31T07:40:50.044Z,10.13
2023-12-31T07:43:16.512Z,10.40
2023-12-31T07:45:43.104Z,10.50
2023-12-31T07:48:09.608Z,10.55
2023-12-31T07:50:36.277Z,10.58
2023-12-31T07:53:02.652Z,10.68
2023-12-31T07:55:29.293Z,10.79
2023-12-31T07:57:55.878Z,10.82
2023-12-31T08:00:22.234Z,10.86
2023-12-31T08:02:48.586Z,10.85
2023-12-31T08:05:15.534Z,10.75
2023-12-31T08:07:42.038Z,10.78
2023-12-31T08:10:08.446Z,10.75
2023-12-31T08:12:34.849Z,10.50
2023-12-31T08:15:02.807Z,10.18
2023-12-31T08:17:29.233Z,10.29
2023-12-31T08:19:55.860Z,10.50
2023-12-31T08:22:22.339Z,10.57
2023-12-31T08:24:48.697Z,10.58
2023-12-31T08:27:15.298Z,10.61
2023-12-31T08:29:41.729Z,10.68
2023-12-31T08:32:08.181Z,10.72
2023-12-31T08:34:34.654Z,10.80
2023-12-31T08:37:01.052Z,10.78
2023-12-31T08:39:27.418Z,10.79
2023-12-31T08:41:53.800Z,10.78
2023-12-31T08:44:20.179Z,10.79
2023-12-31T08:46:46.803Z,10.72
2023-12-31T08:49:13.434Z,10.34
2023-12-31T08:51:40.110Z,10.33
2023-12-31T08:54:06.508Z,10.52
2023-12-31T08:56:32.879Z,10.64
2023-12-31T08:58:59.580Z,10.67
2023-12-31T09:01:26.049Z,10.69
2023-12-31T09:03:52.489Z,10.78
2023-12-31T09:06:18.924Z,10.86
2023-12-31T09:08:45.275Z,10.82
2023-12-31T09:11:11.655Z,10.80
2023-12-31T09:13:38.079Z,10.78
2023-12-31T09:16:04.461Z,10.78
2023-12-31T09:18:30.911Z,10.76
2023-12-31T09:20:57.309Z,10.73
2023-12-31T09:23:23.683Z,10.37
2023-12-31T09:25:50.090Z,10.23
2023-12-31T09:28:16.550Z,10.45
2023-12-31T09:30:43.011Z,10.62
2023-12-31T09:33:09.771Z,10.67
2023-12-31T09:35:36.401Z,10.76
2023-12-31T09:38:03.115Z,10.79
2023-12-31T09:40:29.515Z,10.91
2023-12-31T09:42:55.905Z,10.93
2023-12-31T09:45:22.507Z,10.95
2023-12-31T09:47:49.169Z,10.93
2023-12-31T09:50:15.861Z,10.92
2023-12-31T09:52:42.531Z,10.88
2023-12-31T09:55:09.122Z,10.83
2023-12-31T09:57:35.528Z,10.58
2023-12-31T10:00:02.558Z,10.33
2023-12-31T10:02:28.959Z,10.48
2023-12-31T10:04:55.454Z,10.65
2023-12-31T10:07:21.969Z,10.71
2023-12-31T10:09:48.609Z,10.72
2023-12-31T10:12:14.988Z,10.75
2023-12-31T10:14:41.628Z,10.73
2023-12-31T10:17:08.026Z,10.82
2023-12-31T10:19:34.420Z,10.86
2023-12-31T10:22:00.800Z,10.86
2023-12-31T10:24:27.154Z,10.85
2023-12-31T10:26:53.510Z,10.91
2023-12-31T10:29:21.769Z,10.89
2023-12-31T10:31:48.316Z,10.72
2023-12-31T10:34:14.786Z,10.40
2023-12-31T10:36:42.847Z,10.47
2023-12-31T10:39:09.260Z,10.68
2023-12-31T10:41:35.615Z,10.76
2023-12-31T10:44:02.052Z,10.76
2023-12-31T10:46:28.519Z,10.80
2023-12-31T10:48:54.963Z,10.80
2023-12-31T10:51:21.329Z,10.91
2023-12-31T10:53:47.761Z,10.91
2023-12-31T10:56:14.152Z,10.91
2023-12-31T10:58:40.768Z,10.89
2023-12-31T11:01:07.199Z,10.91
2023-12-31T11:03:33.595Z,10.88
2023-12-31T11:06:00.069Z,10.76
2023-12-31T11:08:26.440Z,10.38
2023-12-31T11:10:52.885Z,10.30
2023-12-31T11:13:19.381Z,10.55
2023-12-31T11:15:45.816Z,10.67
2023-12-31T11:18:12.449Z,10.69
2023-12-31T11:20:38.869Z,10.73
2023-12-31T11:23:05.543Z,10.76
2023-12-31T11:25:32.146Z,10.89
2023-12-31T11:27:58.519Z,10.95
2023-12-31T11:30:24.913Z,10.93
2023-12-31T11:32:51.571Z,10.96
2023-12-31T11:35:17.979Z,10.86
2023-12-31T11:37:44.370Z,10.88
2023-12-31T11:40:10.790Z,10.88
2023-12-31T11:42:37.168Z,10.48
2023-12-31T11:45:03.526Z,10.25
2023-12-31T11:47:29.903Z,10.47
2023-12-31T11:49:56.384Z,10.64
2023-12-31T11:52:22.845Z,10.68
2023-12-31T11:54:49.253Z,10.71
2023-12-31T11:57:15.637Z,10.72
2023-12-31T11:59:42.062Z,10.82
2023-12-31T12:02:08.710Z,10.82
2023-12-31T12:04:35.230Z,10.85
2023-12-31T12:07:01.860Z,10.88
2023-12-31T12:09:28.207Z,10.91
2023-12-31T12:11:54.567Z,10.88
2023-12-31T12:14:20.941Z,10.86
2023-12-31T12:16:47.364Z,10.65
2023-12-31T12:19:13.754Z,10.31
2023-12-31T12:21:40.117Z,10.42
2023-12-31T12:24:06.727Z,10.62
2023-12-31T12:26:33.085Z,10.72
2023-12-31T12:28:59.533Z,10.72
2023-12-31T12:31:25.997Z,10.72
2023-12-31T12:33:52.399Z,10.83
2023-12-31T12:36:18.773Z,10.88
2023-12-31T12:38:46.587Z,10.91
2023-12-31T12:41:13.236Z,10.89
2023-12-31T12:43:39.644Z,10.86
2023-12-31T12:46:06.021Z,10.86
2023-12-31T12:48:32.459Z,10.83
2023-12-31T12:50:58.873Z,10.69
2023-12-31T12:53:25.237Z,10.34
2023-12-31T12:55:51.679Z,10.30
2023-12-31T12:58:18.367Z,10.52
2023-12-31T13:00:44.769Z,10.61
2023-12-31T13:03:11.222Z,10.68
2023-12-31T13:05:37.624Z,10.75
2023-12-31T13:08:03.977Z,10.82
2023-12-31T13:10:30.337Z,10.92
2023-12-31T13:12:56.747Z,10.91
2023-12-31T13:15:23.336Z,10.96
2023-12-31T13:17:49.832Z,10.95
2023-12-31T13:20:16.296Z,10.93
2023-12-31T13:22:42.666Z,10.91
2023-12-31T13:25:09.072Z,10.82
2023-12-31T13:27:35.487Z,10.44
2023-12-31T13:30:01.867Z,10.29
2023-12-31T13:32:28.291Z,10.52
2023-12-31T13:34:54.700Z,10.61
2023-12-31T13:37:21.155Z,10.68
2023-12-31T13:39:47.538Z,10.71
2023-12-31T13:42:14.141Z,10.73
2023-12-31T13:44:40.496Z,10.83
2023-12-31T13:47:06.958Z,10.91
2023-12-31T13:49:33.378Z,10.88
2023-12-31T13:51:59.782Z,10.88
2023-12-31T13:54:26.176Z,10.89
2023-12-31T13:56:52.553Z,10.86
2023-12-31T13:59:19.179Z,10.82
2023-12-31T14:01:45.614Z,10.54
2023-12-31T14:04:12.207Z,10.29
2023-12-31T14:06:38.638Z,10.44
2023-12-31T14:09:06.143Z,10.67
2023-12-31T14:11:33.071Z,10.71
2023-12-31T14:13:59.600Z,10.73
2023-12-31T14:16:26.100Z,10.76
2023-12-31T14:18:52.547Z,10.83
2023-12-31T14:21:18.920Z,10.89
2023-12-31T14:23:45.299Z,10.89
2023-12-31T14:26:11.685Z,10.91
2023-12-31T14:28:38.092Z,10.89
2023-12-31T14:31:04.540Z,10.86
2023-12-31T14:33:31.198Z,10.85
2023-12-31T14:35:57.611Z,10.64
2023-12-31T14:38:23.979Z,10.33
2023-12-31T14:40:50.425Z,10.33
2023-12-31T14:43:16.846Z,10.55
2023-12-31T14:45:43.215Z,10.67
2023-12-31T14:48:09.860Z,10.68
2023-12-31T14:50:36.844Z,10.72
2023-12-31T14:53:03.538Z,10.76
2023-12-31T14:55:30.162Z,10.85
2023-12-31T14:57:56.517Z,10.92
2023-12-31T15:00:22.883Z,10.95
2023-12-31T15:02:49.308Z,10.92
2023-12-31T15:05:18.536Z,10.92
2023-12-31T15:07:45.727Z,10.88
2023-12-31T15:10:12.131Z,10.79
2023-12-31T15:12:38.493Z,10.41
2023-12-31T15:15:04.862Z,10.31
2023-12-31T15:17:31.297Z,10.54
2023-12-31T15:19:57.756Z,10.64
2023-12-31T15:22:24.215Z,10.68
2023-12-31T15:24:50.858Z,10.68
2023-12-31T15:27:17.216Z,10.72
2023-12-31T15:29:44.731Z,10.86
2023-12-31T15:32:12.146Z,10.85
2023-12-31T15:34:38.589Z,10.83
2023-12-31T15:37:04.976Z,10.88
2023-12-31T15:39:31.350Z,10.86
2023-12-31T15:44:38.306Z,10.80
2023-12-31T15:47:05.012Z,10.44
2023-12-31T15:49:31.538Z,10.25
2023-12-31T15:51:57.944Z,10.50
2023-12-31T15:54:24.326Z,10.65
2023-12-31T15:56:50.692Z,10.73
2023-12-31T15:59:17.050Z,10.73
2023-12-31T16:01:43.455Z,10.78
2023-12-31T16:04:10.071Z,10.86
2023-12-31T16:06:36.432Z,10.91
2023-12-31T16:09:02.836Z,10.89
2023-12-31T16:11:29.204Z,10.91
2023-12-31T16:13:55.590Z,10.89
2023-12-31T16:16:22.037Z,10.85
2023-12-31T16:18:48.578Z,10.83
2023-12-31T16:21:14.995Z,10.57
2023-12-31T16:23:41.382Z,10.27
2023-12-31T16:26:07.844Z,10.37
2023-12-31T16:28:34.494Z,10.57
2023-12-31T16:31:01.010Z,10.68
2023-12-31T16:33:27.553Z,10.72
2023-12-31T16:35:54.020Z,10.73
2023-12-31T16:38:20.381Z,10.80
2023-12-31T16:40:46.769Z,10.93
2023-12-31T16:43:13.221Z,10.89
2023-12-31T16:45:40.019Z,10.89
2023-12-31T16:48:06.865Z,10.89
2023-12-31T16:50:33.478Z,10.88
2023-12-31T16:52:59.897Z,10.86
2023-12-31T16:55:26.432Z,10.71
2023-12-31T16:57:52.897Z,10.31
2023-12-31T17:00:19.338Z,10.34
2023-12-31T17:02:45.965Z,10.57
2023-12-31T17:05:12.438Z,10.65
2023-12-31T17:07:38.920Z,10.69
2023-12-31T17:10:05.358Z,10.72
2023-12-31T17:12:31.752Z,10.80
2023-12-31T17:14:58.140Z,10.85
2023-12-31T17:17:24.592Z,10.86
2023-12-31T17:19:51.237Z,10.83
2023-12-31T17:22:17.608Z,10.82
2023-12-31T17:24:43.976Z,10.83
2023-12-31T17:27:10.335Z,10.80
2023-12-31T17:29:36.760Z,10.76
2023-12-31T17:32:03.202Z,10.42
2023-12-31T17:34:29.654Z,10.27
2023-12-31T17:36:56.295Z,10.51
2023-12-31T17:39:22.701Z,10.69
2023-12-31T17:41:49.122Z,10.72
2023-12-31T17:44:15.504Z,10.72
2023-12-31T17:46:41.939Z,10.71
2023-12-31T17:49:08.359Z,10.80
2023-12-31T17:51:34.764Z,10.89
2023-12-31T17:54:01.392Z,10.86
2023-12-31T17:56:27.774Z,10.89
2023-12-31T17:58:54.182Z,10.89
2023-12-31T18:01:20.598Z,10.85
2023-12-31T18:03:47.013Z,10.83
2023-12-31T18:06:13.552Z,10.51
2023-12-31T18:08:40.044Z,10.25
2023-12-31T18:11:06.696Z,10.42
2023-12-31T18:13:33.121Z,10.62
2023-12-31T18:16:02.088Z,10.67
2023-12-31T18:18:29.954Z,10.69
2023-12-31T18:20:56.373Z,10.71
2023-12-31T18:23:22.746Z,10.83
2023-12-31T18:25:49.217Z,10.92
2023-12-31T18:28:15.841Z,10.95
2023-12-31T18:30:47.052Z,10.91
2023-12-31T18:33:14.132Z,10.91
2023-12-31T18:35:40.618Z,10.88
2023-12-31T18:38:07.264Z,10.85
2023-12-31T18:40:33.803Z,10.61
2023-12-31T18:43:00.192Z,10.31
2023-12-31T18:45:26.539Z,10.40
2023-12-31T18:47:52.975Z,10.61
2023-12-31T18:50:19.648Z,10.69
2023-12-31T18:52:46.151Z,10.73
2023-12-31T18:55:12.566Z,10.73
2023-12-31T18:57:39.135Z,10.78
2023-12-31T19:00:05.527Z,10.86
2023-12-31T19:02:31.931Z,10.86
2023-12-31T19:04:58.387Z,10.85
2023-12-31T19:07:24.912Z,10.85
2023-12-31T19:09:52.257Z,10.82
2023-12-31T19:12:18.655Z,10.83
2023-12-31T19:14:45.052Z,10.76
2023-12-31T19:17:11.555Z,10.38
2023-12-31T19:19:38.061Z,10.34
2023-12-31T19:22:04.438Z,10.55
2023-12-31T19:24:30.841Z,10.65
2023-12-31T19:26:57.454Z,10.72
2023-12-31T19:29:24.027Z,10.71
2023-12-31T19:31:50.448Z,10.76
2023-12-31T19:34:16.896Z,10.83
2023-12-31T19:36:43.306Z,10.88
2023-12-31T19:39:09.885Z,10.86
2023-12-31T19:41:36.281Z,10.88
2023-12-31T19:44:21.713Z,10.83
2023-12-31T19:46:49.128Z,10.83
2023-12-31T19:49:15.549Z,10.79
2023-12-31T19:51:41.905Z,10.38
2023-12-31T19:54:08.274Z,10.24
2023-12-31T19:56:34.843Z,10.47
2023-12-31T19:59:01.187Z,10.62
2023-12-31T20:01:27.820Z,10.68
2023-12-31T20:03:54.672Z,10.73
2023-12-31T20:06:21.327Z,10.73
2023-12-31T20:08:47.687Z,10.82
2023-12-31T20:11:14.264Z,10.89
2023-12-31T20:13:40.647Z,10.89
2023-12-31T20:16:07.048Z,10.88
2023-12-31T20:18:33.500Z,10.91
2023-12-31T20:20:59.941Z,10.86
2023-12-31T20:23:26.371Z,10.83
2023-12-31T20:25:52.810Z,10.50
2023-12-31T20:28:19.228Z,10.25
2023-12-31T20:30:45.622Z,10.45
2023-12-31T20:33:12.188Z,10.59
2023-12-31T20:35:38.867Z,10.65
2023-12-31T20:38:05.518Z,10.65
2023-12-31T20:40:31.992Z,10.71
2023-12-31T20:42:58.386Z,10.73
2023-12-31T20:45:24.779Z,10.85
2023-12-31T20:47:51.249Z,10.82
2023-12-31T20:50:18.036Z,10.79
2023-12-31T20:52:44.491Z,10.78
2023-12-31T20:55:10.872Z,10.79
2023-12-31T20:57:37.232Z,10.80
2023-12-31T21:00:03.593Z,10.59
2023-12-31T21:02:29.956Z,10.30
2023-12-31T21:04:56.416Z,10.34
2023-12-31T21:07:22.868Z,10.55
2023-12-31T21:09:49.247Z,10.65
2023-12-31T21:12:15.608Z,10.71
2023-12-31T21:14:41.992Z,10.68
2023-12-31T21:17:08.445Z,10.76
2023-12-31T21:19:34.850Z,10.88
2023-12-31T21:22:01.246Z,10.85
2023-12-31T21:24:27.644Z,10.86
2023-12-31T21:26:54.038Z,10.80
2023-12-31T21:29:20.517Z,10.80
2023-12-31T21:31:47.033Z,10.78
2023-12-31T21:34:13.705Z,10.68
2023-12-31T21:36:40.211Z,10.33
2023-12-31T21:39:06.816Z,10.27
2023-12-31T21:41:33.182Z,10.48
2023-12-31T21:43:59.659Z,10.57
2023-12-31T21:46:26.084Z,10.61
2023-12-31T21:48:52.480Z,10.65
2023-12-31T21:51:19.086Z,10.71
2023-12-31T21:53:45.439Z,10.80
2023-12-31T21:56:29.841Z,10.86
2023-12-31T21:58:58.708Z,10.85
2023-12-31T22:01:25.095Z,10.85
2023-12-31T22:03:51.656Z,10.82
2023-12-31T22:06:18.035Z,10.82
2023-12-31T22:08:44.603Z,10.75
2023-12-31T22:11:11.021Z,10.38
2023-12-31T22:13:37.638Z,10.24
2023-12-31T22:16:04.029Z,10.47
2023-12-31T22:18:30.531Z,10.59
2023-12-31T22:20:56.934Z,10.61
2023-12-31T22:23:23.310Z,10.64
2023-12-31T22:25:49.744Z,10.61
2023-12-31T22:28:16.586Z,10.72
2023-12-31T22:30:43.228Z,10.76
2023-12-31T22:33:09.934Z,10.75
2023-12-31T22:35:36.530Z,10.76
2023-12-31T22:38:03.352Z,10.72
2023-12-31T22:40:30.225Z,10.72
2023-12-31T22:42:56.615Z,10.72
2023-12-31T22:45:23.226Z,10.42
2023-12-31T22:47:49.618Z,10.18
2023-12-31T22:50:16.078Z,10.37
2023-12-31T22:52:42.521Z,10.57
2023-12-31T22:55:08.922Z,10.59
2023-12-31T22:57:35.297Z,10.65
2023-12-31T23:00:01.672Z,10.68
2023-12-31T23:02:28.073Z,10.73
2023-12-31T23:04:54.496Z,10.76
2023-12-31T23:07:20.948Z,10.79
2023-12-31T23:09:47.312Z,10.80
2023-12-31T23:12:13.885Z,10.80
2023-12-31T23:14:40.274Z,10.78
2023-12-31T23:17:07.173Z,10.75
2023-12-31T23:19:33.619Z,10.58
2023-12-31T23:22:00.263Z,10.20
2023-12-31T23:24:26.654Z,10.27
2023-12-31T23:26:53.002Z,10.47
2023-12-31T23:29:19.381Z,10.54
2023-12-31T23:31:45.807Z,10.61
2023-12-31T23:34:12.417Z,10.61
2023-12-31T23:36:44.293Z,10.71
2023-12-31T23:39:16.783Z,10.80
2023-12-31T23:41:47.480Z,10.86
2023-12-31T23:44:17.490Z,10.78
2023-12-31T23:46:47.300Z,10.82
2023-12-31T23:49:14.545Z,10.79
2023-12-31T23:51:40.941Z,10.78
2023-12-31T23:54:07.305Z,10.68
2023-12-31T23:56:33.675Z,10.29
2023-12-31T23:59:00.056Z,10.27
